Wetterdaten: Woche 29.04.24 - 05.05.24 (KW18)
Datum Zeit Temp. I. Temp. A. Feuchte I. Feuchte A. Luftdruck Regen Wind Richtung Sonnenschein Solar Taupunkt Windchill Windböen
29.04.2024 00:00 21,8 °C 14,2 °C 53 % 71 % 1017,5 hPa 0,0 l/m² 7,3 km/h (2 Bft) W-SW 0,00 h 0 W/m² 9,0 °C 13,5 °C 10,5 km/h (2 Bft)
29.04.2024 01:00 21,8 °C 13,3 °C 53 % 76 % 1018,1 hPa 0,0 l/m² 2,9 km/h (1 Bft) W 0,00 h 0 W/m² 9,0 °C 13,3 °C 4,5 km/h (1 Bft)
29.04.2024 02:00 21,8 °C 11,7 °C 53 % 84 % 1018,6 hPa 0,0 l/m² 2,2 km/h (1 Bft) SW 0,00 h 0 W/m² 9,1 °C 11,7 °C 3,5 km/h (1 Bft)
29.04.2024 03:00 21,7 °C 11,7 °C 53 % 82 % 1019,7 hPa 0,0 l/m² 0,5 km/h (0 Bft) W-SW 0,00 h 0 W/m² 8,8 °C 11,7 °C 1,4 km/h (1 Bft)
29.04.2024 04:00 21,7 °C 11,7 °C 53 % 85 % 1020,1 hPa 0,0 l/m² 0,1 km/h (0 Bft) W-SW 0,00 h 0 W/m² 9,2 °C 11,7 °C 0,2 km/h (0 Bft)
29.04.2024 05:00 21,7 °C 10,8 °C 53 % 90 % 1020,5 hPa 0,2 l/m² 0,0 km/h (0 Bft) W-SW 0,00 h 0 W/m² 9,3 °C 10,8 °C 0,0 km/h (0 Bft)
29.04.2024 06:00 21,7 °C 10,6 °C 54 % 93 % 1021,3 hPa 0,0 l/m² 0,0 km/h (0 Bft) W-SW 0,00 h 17 W/m² 9,5 °C 10,6 °C 0,0 km/h (0 Bft)
29.04.2024 07:00 21,7 °C 11,1 °C 53 % 94 % 1021,7 hPa 0,0 l/m² 0,0 km/h (0 Bft) W-SW 0,58 h 64 W/m² 10,1 °C 11,1 °C 0,0 km/h (0 Bft)
29.04.2024 08:00 21,7 °C 12,8 °C 53 % 90 % 1022,0 hPa 0,0 l/m² 0,0 km/h (0 Bft) W-SW 1,00 h 175 W/m² 11,2 °C 12,8 °C 0,0 km/h (0 Bft)
29.04.2024 09:00 21,7 °C 14,6 °C 53 % 84 % 1022,5 hPa 0,0 l/m² 0,0 km/h (0 Bft) SO 1,00 h 335 W/m² 11,8 °C 14,6 °C 0,0 km/h (0 Bft)
29.04.2024 10:00 21,7 °C 16,5 °C 53 % 70 % 1022,8 hPa 0,0 l/m² 2,1 km/h (1 Bft) O-NO 1,00 h 535 W/m² 11,1 °C 16,5 °C 4,1 km/h (1 Bft)
29.04.2024 11:00 21,9 °C 18,1 °C 52 % 64 % 1022,8 hPa 0,0 l/m² 4,3 km/h (1 Bft) NO 1,00 h 663 W/m² 11,2 °C 18,0 °C 7,2 km/h (2 Bft)
29.04.2024 12:00 22,0 °C 19,2 °C 52 % 61 % 1022,6 hPa 0,0 l/m² 4,7 km/h (1 Bft) O 1,00 h 808 W/m² 11,5 °C 19,1 °C 7,3 km/h (2 Bft)
29.04.2024 13:00 22,1 °C 20,1 °C 52 % 59 % 1022,4 hPa 0,0 l/m² 5,4 km/h (2 Bft) O 1,00 h 794 W/m² 11,9 °C 19,9 °C 8,4 km/h (2 Bft)
29.04.2024 14:00 22,2 °C 20,3 °C 52 % 59 % 1022,1 hPa 0,0 l/m² 6,0 km/h (2 Bft) O 1,00 h 559 W/m² 12,0 °C 19,8 °C 9,6 km/h (2 Bft)
29.04.2024 15:00 22,2 °C 20,9 °C 53 % 60 % 1021,8 hPa 0,0 l/m² 5,7 km/h (2 Bft) O-NO 1,00 h 617 W/m² 12,7 °C 20,6 °C 9,3 km/h (2 Bft)
29.04.2024 16:00 22,2 °C 21,7 °C 53 % 57 % 1021,5 hPa 0,0 l/m² 7,8 km/h (2 Bft) O 1,00 h 564 W/m² 12,7 °C 20,9 °C 11,6 km/h (2 Bft)
29.04.2024 17:00 22,2 °C 21,4 °C 52 % 57 % 1021,3 hPa 0,0 l/m² 6,7 km/h (2 Bft) O-NO 1,00 h 409 W/m² 12,4 °C 20,9 °C 10,3 km/h (2 Bft)
29.04.2024 18:00 22,2 °C 20,9 °C 51 % 59 % 1020,9 hPa 0,0 l/m² 6,6 km/h (2 Bft) O-NO 1,00 h 235 W/m² 12,5 °C 20,6 °C 9,9 km/h (2 Bft)
29.04.2024 19:00 22,2 °C 19,8 °C 51 % 61 % 1020,8 hPa 0,0 l/m² 4,4 km/h (1 Bft) O-NO 0,88 h 96 W/m² 12,0 °C 19,7 °C 6,5 km/h (2 Bft)
29.04.2024 20:00 22,1 °C 17,2 °C 51 % 74 % 1021,0 hPa 0,0 l/m² 0,1 km/h (0 Bft) NO 0,00 h 21 W/m² 12,4 °C 17,2 °C 0,2 km/h (0 Bft)
29.04.2024 21:00 22,3 °C 14,2 °C 53 % 86 % 1021,2 hPa 0,0 l/m² 0,0 km/h (0 Bft) NO 0,00 h 0 W/m² 11,9 °C 14,2 °C 0,0 km/h (0 Bft)
29.04.2024 22:00 22,3 °C 13,4 °C 53 % 88 % 1021,3 hPa 0,0 l/m² 0,3 km/h (0 Bft) NO 0,00 h 0 W/m² 11,5 °C 13,4 °C 0,6 km/h (0 Bft)
29.04.2024 23:00 22,1 °C 12,4 °C 54 % 85 % 1021,2 hPa 0,0 l/m² 1,6 km/h (1 Bft) SW 0,00 h 0 W/m² 10,0 °C 12,4 °C 2,8 km/h (1 Bft)
30.04.2024 00:00 22,0 °C 9,8 °C 54 % 90 % 1021,0 hPa 0,0 l/m² 0,0 km/h (0 Bft) SW 0,00 h 0 W/m² 8,2 °C 9,8 °C 0,0 km/h (0 Bft)
30.04.2024 01:00 21,9 °C 9,1 °C 53 % 92 % 1020,5 hPa 0,0 l/m² 0,0 km/h (0 Bft) SW 0,00 h 0 W/m² 7,8 °C 9,1 °C 0,0 km/h (0 Bft)
30.04.2024 02:00 21,9 °C 9,2 °C 53 % 93 % 1020,1 hPa 0,0 l/m² 0,0 km/h (0 Bft) SW 0,00 h 0 W/m² 8,1 °C 9,2 °C 0,0 km/h (0 Bft)
30.04.2024 03:00 21,9 °C 8,8 °C 53 % 93 % 1019,7 hPa 0,0 l/m² 0,3 km/h (0 Bft) NW 0,00 h 0 W/m² 7,7 °C 8,8 °C 1,5 km/h (1 Bft)
30.04.2024 04:00 21,8 °C 8,5 °C 53 % 93 % 1019,3 hPa 0,0 l/m² 0,3 km/h (0 Bft) W-NW 0,00 h 0 W/m² 7,5 °C 8,5 °C 0,9 km/h (0 Bft)
30.04.2024 05:00 21,9 °C 9,6 °C 53 % 94 % 1018,8 hPa 0,0 l/m² 1,3 km/h (1 Bft) NW 0,00 h 7 W/m² 8,6 °C 9,6 °C 2,7 km/h (1 Bft)
30.04.2024 06:00 21,9 °C 10,0 °C 53 % 93 % 1018,7 hPa 0,0 l/m² 0,5 km/h (0 Bft) W 0,38 h 38 W/m² 8,9 °C 10,0 °C 1,6 km/h (1 Bft)
30.04.2024 07:00 21,9 °C 11,0 °C 53 % 92 % 1018,6 hPa 0,0 l/m² 0,8 km/h (0 Bft) W 0,87 h 110 W/m² 9,8 °C 11,0 °C 2,6 km/h (1 Bft)
30.04.2024 08:00 22,0 °C 14,0 °C 53 % 84 % 1018,3 hPa 0,0 l/m² 2,6 km/h (1 Bft) W 1,00 h 329 W/m² 11,3 °C 14,0 °C 5,4 km/h (1 Bft)
30.04.2024 09:00 22,1 °C 16,5 °C 53 % 76 % 1017,8 hPa 0,0 l/m² 2,2 km/h (1 Bft) NO 1,02 h 511 W/m² 12,4 °C 16,5 °C 4,7 km/h (1 Bft)
30.04.2024 10:00 22,2 °C 18,1 °C 52 % 74 % 1017,4 hPa 0,0 l/m² 4,2 km/h (1 Bft) O 1,00 h 623 W/m² 13,5 °C 18,1 °C 8,3 km/h (2 Bft)
30.04.2024 11:00 22,3 °C 20,3 °C 52 % 72 % 1017,1 hPa 0,0 l/m² 6,1 km/h (2 Bft) O 1,00 h 760 W/m² 15,0 °C 20,0 °C 11,3 km/h (2 Bft)
30.04.2024 12:00 22,4 °C 22,0 °C 52 % 68 % 1016,8 hPa 0,0 l/m² 6,2 km/h (2 Bft) NO 1,00 h 820 W/m² 15,9 °C 21,7 °C 11,5 km/h (2 Bft)
30.04.2024 13:00 22,5 °C 23,8 °C 52 % 63 % 1016,1 hPa 0,0 l/m² 7,3 km/h (2 Bft) O 0,98 h 834 W/m² 16,3 °C 23,4 °C 13,1 km/h (3 Bft)
30.04.2024 14:00 22,6 °C 25,4 °C 52 % 57 % 1015,4 hPa 0,0 l/m² 7,4 km/h (2 Bft) O 1,00 h 791 W/m² 16,3 °C 25,1 °C 13,2 km/h (3 Bft)
30.04.2024 15:00 22,6 °C 25,9 °C 52 % 54 % 1014,7 hPa 0,0 l/m² 9,8 km/h (2 Bft) O 1,02 h 698 W/m² 15,9 °C 25,2 °C 15,5 km/h (3 Bft)
30.04.2024 16:00 22,7 °C 26,5 °C 52 % 54 % 1014,1 hPa 0,0 l/m² 9,2 km/h (2 Bft) O 1,00 h 565 W/m² 16,3 °C 25,9 °C 15,1 km/h (3 Bft)
30.04.2024 17:00 22,7 °C 26,2 °C 53 % 54 % 1013,7 hPa 0,0 l/m² 9,1 km/h (2 Bft) O-NO 1,00 h 361 W/m² 16,3 °C 25,6 °C 15,3 km/h (3 Bft)
30.04.2024 18:00 22,6 °C 25,5 °C 53 % 55 % 1013,2 hPa 0,0 l/m² 7,2 km/h (2 Bft) O-NO 1,00 h 177 W/m² 15,7 °C 25,2 °C 12,8 km/h (3 Bft)
30.04.2024 19:00 22,6 °C 22,5 °C 53 % 63 % 1012,8 hPa 0,0 l/m² 4,7 km/h (1 Bft) O-NO 0,47 h 43 W/m² 15,0 °C 22,5 °C 8,8 km/h (2 Bft)
30.04.2024 20:00 22,5 °C 18,8 °C 53 % 72 % 1012,8 hPa 0,0 l/m² 5,4 km/h (2 Bft) O 0,00 h 13 W/m² 13,6 °C 18,8 °C 6,9 km/h (2 Bft)
30.04.2024 21:00 22,4 °C 16,2 °C 53 % 79 % 1012,9 hPa 0,0 l/m² 5,2 km/h (1 Bft) O-NO 0,00 h 0 W/m² 12,5 °C 16,2 °C 6,7 km/h (2 Bft)
30.04.2024 22:00 22,4 °C 15,0 °C 53 % 82 % 1012,7 hPa 0,0 l/m² 5,3 km/h (1 Bft) O-NO 0,00 h 0 W/m² 11,9 °C 14,9 °C 7,1 km/h (2 Bft)
30.04.2024 23:00 22,3 °C 15,9 °C 53 % 76 % 1012,6 hPa 0,0 l/m² 6,3 km/h (2 Bft) O-NO 0,00 h 0 W/m² 11,8 °C 15,7 °C 9,1 km/h (2 Bft)
01.05.2024 00:00 22,3 °C 14,9 °C 54 % 79 % 1012,3 hPa 0,0 l/m² 5,4 km/h (2 Bft) O-NO 0,00 h 0 W/m² 11,2 °C 14,8 °C 8,1 km/h (2 Bft)
01.05.2024 01:00 22,2 °C 12,9 °C 54 % 83 % 1012,1 hPa 0,0 l/m² 1,9 km/h (1 Bft) O 0,00 h 0 W/m² 10,1 °C 12,9 °C 3,2 km/h (1 Bft)
01.05.2024 02:00 22,2 °C 10,9 °C 54 % 89 % 1011,6 hPa 0,0 l/m² 0,0 km/h (0 Bft) O 0,00 h 0 W/m² 9,1 °C 10,9 °C 0,0 km/h (0 Bft)
01.05.2024 03:00 22,1 °C 10,4 °C 54 % 91 % 1011,2 hPa 0,0 l/m² 4,1 km/h (1 Bft) O-NO 0,00 h 0 W/m² 9,0 °C 10,3 °C 5,2 km/h (1 Bft)
01.05.2024 04:00 22,1 °C 10,8 °C 54 % 88 % 1011,0 hPa 0,0 l/m² 5,0 km/h (1 Bft) O 0,00 h 0 W/m² 8,9 °C 10,3 °C 6,6 km/h (2 Bft)
01.05.2024 05:00 22,0 °C 9,3 °C 54 % 89 % 1010,8 hPa 0,0 l/m² 0,0 km/h (0 Bft) O-SO 0,00 h 8 W/m² 7,6 °C 9,3 °C 0,1 km/h (0 Bft)
01.05.2024 06:00 21,9 °C 8,7 °C 54 % 92 % 1010,6 hPa 0,0 l/m² 0,0 km/h (0 Bft) SO 0,22 h 38 W/m² 7,4 °C 8,7 °C 0,0 km/h (0 Bft)
01.05.2024 07:00 21,9 °C 12,5 °C 53 % 87 % 1010,3 hPa 0,0 l/m² 4,7 km/h (1 Bft) O-NO 1,00 h 144 W/m² 10,3 °C 12,3 °C 7,8 km/h (2 Bft)
01.05.2024 08:00 22,0 °C 16,3 °C 55 % 76 % 1010,2 hPa 0,0 l/m² 7,1 km/h (2 Bft) O 1,00 h 329 W/m² 12,1 °C 15,8 °C 10,7 km/h (2 Bft)
01.05.2024 09:00 22,2 °C 19,2 °C 55 % 69 % 1009,8 hPa 0,0 l/m² 7,9 km/h (2 Bft) O-NO 1,00 h 528 W/m² 13,3 °C 18,5 °C 11,9 km/h (2 Bft)
01.05.2024 10:00 22,1 °C 21,2 °C 54 % 64 % 1009,3 hPa 0,0 l/m² 9,7 km/h (2 Bft) O 1,00 h 672 W/m² 14,0 °C 20,1 °C 14,0 km/h (3 Bft)
01.05.2024 11:00 22,2 °C 22,9 °C 53 % 58 % 1009,0 hPa 0,0 l/m² 13,2 km/h (3 Bft) O-NO 1,00 h 779 W/m² 14,3 °C 21,2 °C 18,8 km/h (3 Bft)
01.05.2024 12:00 22,3 °C 24,0 °C 55 % 56 % 1008,4 hPa 0,0 l/m² 14,5 km/h (3 Bft) O 1,00 h 836 W/m² 14,6 °C 22,2 °C 19,6 km/h (3 Bft)
01.05.2024 13:00 22,6 °C 25,0 °C 57 % 51 % 1007,7 hPa 0,0 l/m² 18,5 km/h (3 Bft) O-NO 1,00 h 834 W/m² 14,2 °C 22,9 °C 24,8 km/h (4 Bft)
01.05.2024 14:00 22,6 °C 25,3 °C 56 % 50 % 1007,1 hPa 0,0 l/m² 19,5 km/h (3 Bft) O-NO 1,00 h 768 W/m² 14,0 °C 23,1 °C 27,1 km/h (5 Bft)
01.05.2024 15:00 22,7 °C 25,2 °C 56 % 51 % 1006,5 hPa 0,0 l/m² 20,2 km/h (4 Bft) O 1,00 h 630 W/m² 14,4 °C 23,0 °C 27,6 km/h (5 Bft)
01.05.2024 16:00 22,8 °C 25,0 °C 56 % 53 % 1006,0 hPa 0,0 l/m² 20,7 km/h (4 Bft) O 1,00 h 524 W/m² 14,8 °C 22,6 °C 28,3 km/h (5 Bft)
01.05.2024 17:00 22,7 °C 24,1 °C 55 % 54 % 1005,8 hPa 0,0 l/m² 20,9 km/h (4 Bft) O 1,00 h 351 W/m² 14,2 °C 21,5 °C 29,2 km/h (5 Bft)
01.05.2024 18:00 22,7 °C 23,2 °C 57 % 55 % 1005,6 hPa 0,0 l/m² 18,8 km/h (3 Bft) O 1,00 h 216 W/m² 13,6 °C 20,6 °C 25,3 km/h (4 Bft)
01.05.2024 19:00 22,7 °C 22,1 °C 56 % 56 % 1005,6 hPa 0,0 l/m² 15,0 km/h (3 Bft) O 0,98 h 101 W/m² 12,9 °C 19,8 °C 20,3 km/h (4 Bft)
01.05.2024 20:00 22,7 °C 21,0 °C 56 % 55 % 1005,7 hPa 0,0 l/m² 15,4 km/h (3 Bft) O 0,00 h 29 W/m² 11,7 °C 18,5 °C 20,7 km/h (4 Bft)
01.05.2024 21:00 22,7 °C 18,1 °C 57 % 65 % 1005,7 hPa 0,0 l/m² 7,5 km/h (2 Bft) O-NO 0,00 h 0 W/m² 11,3 °C 17,5 °C 11,2 km/h (2 Bft)
01.05.2024 22:00 22,7 °C 17,1 °C 56 % 68 % 1005,5 hPa 0,0 l/m² 8,4 km/h (2 Bft) O-NO 0,00 h 0 W/m² 11,1 °C 16,1 °C 13,4 km/h (3 Bft)
01.05.2024 23:00 22,6 °C 15,7 °C 56 % 73 % 1005,1 hPa 0,0 l/m² 9,1 km/h (2 Bft) O-NO 0,00 h 0 W/m² 10,8 °C 14,3 °C 13,2 km/h (3 Bft)
02.05.2024 00:00 22,6 °C 14,8 °C 56 % 76 % 1004,8 hPa 0,0 l/m² 8,1 km/h (2 Bft) O-NO 0,00 h 0 W/m² 10,6 °C 13,9 °C 13,2 km/h (3 Bft)
02.05.2024 01:00 22,6 °C 14,8 °C 56 % 76 % 1004,4 hPa 0,0 l/m² 10,0 km/h (2 Bft) O-NO 0,00 h 0 W/m² 10,6 °C 12,9 °C 15,1 km/h (3 Bft)
02.05.2024 02:00 22,6 °C 14,1 °C 56 % 78 % 1004,0 hPa 0,0 l/m² 7,7 km/h (2 Bft) O-NO 0,00 h 0 W/m² 10,4 °C 13,3 °C 12,2 km/h (2 Bft)
02.05.2024 03:00 22,6 °C 12,7 °C 55 % 84 % 1003,7 hPa 0,0 l/m² 7,5 km/h (2 Bft) O-NO 0,00 h 0 W/m² 10,0 °C 12,0 °C 11,1 km/h (2 Bft)
02.05.2024 04:00 22,5 °C 12,5 °C 55 % 85 % 1003,5 hPa 0,0 l/m² 7,7 km/h (2 Bft) O-NO 0,00 h 0 W/m² 10,1 °C 11,7 °C 11,8 km/h (2 Bft)
02.05.2024 05:00 22,5 °C 12,4 °C 55 % 85 % 1003,2 hPa 0,0 l/m² 9,1 km/h (2 Bft) O 0,00 h 8 W/m² 10,0 °C 10,8 °C 13,8 km/h (3 Bft)
02.05.2024 06:00 22,4 °C 12,5 °C 54 % 85 % 1003,3 hPa 0,0 l/m² 7,9 km/h (2 Bft) O-NO 0,23 h 40 W/m² 10,1 °C 11,5 °C 12,1 km/h (2 Bft)
02.05.2024 07:00 22,4 °C 13,8 °C 54 % 83 % 1003,4 hPa 0,0 l/m² 9,1 km/h (2 Bft) O 1,00 h 89 W/m² 11,0 °C 12,2 °C 14,5 km/h (3 Bft)
02.05.2024 08:00 22,3 °C 15,9 °C 54 % 79 % 1003,3 hPa 0,0 l/m² 9,1 km/h (2 Bft) O 1,00 h 270 W/m² 12,3 °C 14,5 °C 14,6 km/h (3 Bft)
02.05.2024 09:00 22,3 °C 18,9 °C 54 % 72 % 1002,8 hPa 0,0 l/m² 10,7 km/h (2 Bft) O 0,98 h 552 W/m² 13,8 °C 17,4 °C 16,5 km/h (3 Bft)
02.05.2024 10:00 22,4 °C 21,5 °C 54 % 62 % 1002,2 hPa 0,0 l/m² 15,3 km/h (3 Bft) O 1,00 h 672 W/m² 14,0 °C 19,1 °C 23,3 km/h (4 Bft)
02.05.2024 11:00 22,5 °C 22,9 °C 54 % 58 % 1002,0 hPa 0,0 l/m² 19,2 km/h (3 Bft) O 1,00 h 778 W/m² 14,1 °C 20,1 °C 27,8 km/h (5 Bft)
02.05.2024 12:00 22,6 °C 23,8 °C 54 % 55 % 1001,5 hPa 0,0 l/m² 21,6 km/h (4 Bft) O 1,02 h 832 W/m² 14,1 °C 20,9 °C 29,5 km/h (5 Bft)
02.05.2024 13:00 22,7 °C 24,4 °C 54 % 54 % 1001,0 hPa 0,0 l/m² 21,0 km/h (4 Bft) O 1,00 h 867 W/m² 14,5 °C 21,8 °C 28,5 km/h (5 Bft)
02.05.2024 14:00 22,8 °C 24,0 °C 54 % 54 % 1001,0 hPa 0,0 l/m² 20,0 km/h (4 Bft) O 1,00 h 573 W/m² 14,2 °C 21,5 °C 27,0 km/h (5 Bft)
02.05.2024 15:00 22,8 °C 23,4 °C 54 % 55 % 1000,6 hPa 0,0 l/m² 16,5 km/h (3 Bft) O-SO 1,00 h 391 W/m² 13,9 °C 21,2 °C 22,9 km/h (4 Bft)
02.05.2024 16:00 22,8 °C 23,6 °C 54 % 54 % 1000,3 hPa 0,0 l/m² 18,4 km/h (3 Bft) O 1,00 h 349 W/m² 13,8 °C 21,2 °C 25,2 km/h (4 Bft)
02.05.2024 17:00 22,8 °C 23,7 °C 54 % 53 % 1000,1 hPa 0,0 l/m² 20,6 km/h (4 Bft) O 1,00 h 356 W/m² 13,4 °C 21,0 °C 28,1 km/h (5 Bft)
02.05.2024 18:00 22,8 °C 23,1 °C 55 % 54 % 1000,1 hPa 0,0 l/m² 20,8 km/h (4 Bft) O 1,00 h 251 W/m² 13,2 °C 20,2 °C 28,2 km/h (5 Bft)
02.05.2024 19:00 22,8 °C 21,9 °C 56 % 59 % 1000,4 hPa 0,0 l/m² 15,8 km/h (3 Bft) O 0,63 h 74 W/m² 13,5 °C 19,4 °C 21,5 km/h (4 Bft)
02.05.2024 20:00 22,8 °C 20,1 °C 56 % 64 % 1000,9 hPa 0,0 l/m² 11,0 km/h (2 Bft) O 0,00 h 16 W/m² 12,9 °C 18,5 °C 15,7 km/h (3 Bft)
02.05.2024 21:00 22,9 °C 18,1 °C 56 % 71 % 1001,4 hPa 0,0 l/m² 8,6 km/h (2 Bft) O-NO 0,00 h 0 W/m² 12,7 °C 17,1 °C 13,0 km/h (3 Bft)
02.05.2024 22:00 22,9 °C 18,2 °C 57 % 71 % 1001,8 hPa 0,0 l/m² 9,3 km/h (2 Bft) O-NO 0,00 h 0 W/m² 12,8 °C 16,9 °C 14,3 km/h (3 Bft)
02.05.2024 23:00 22,8 °C 17,6 °C 57 % 74 % 1002,2 hPa 0,0 l/m² 8,6 km/h (2 Bft) O 0,00 h 0 W/m² 12,9 °C 16,5 °C 12,6 km/h (3 Bft)
03.05.2024 00:00 22,6 °C 16,3 °C 57 % 79 % 1002,8 hPa 0,0 l/m² 7,5 km/h (2 Bft) O-NO 0,00 h 0 W/m² 12,6 °C 15,8 °C 10,5 km/h (2 Bft)
03.05.2024 01:00 22,6 °C 14,6 °C 57 % 84 % 1003,2 hPa 0,0 l/m² 2,1 km/h (1 Bft) N 0,00 h 0 W/m² 12,0 °C 14,6 °C 3,4 km/h (1 Bft)
03.05.2024 02:00 22,6 °C 13,1 °C 57 % 88 % 1003,3 hPa 0,0 l/m² 1,8 km/h (1 Bft) NO 0,00 h 0 W/m² 11,1 °C 13,1 °C 3,3 km/h (1 Bft)
03.05.2024 03:00 22,5 °C 12,3 °C 57 % 89 % 1003,9 hPa 0,0 l/m² 3,3 km/h (1 Bft) SO 0,00 h 0 W/m² 10,7 °C 12,3 °C 5,2 km/h (1 Bft)
03.05.2024 04:00 22,4 °C 12,1 °C 57 % 91 % 1004,3 hPa 0,0 l/m² 2,7 km/h (1 Bft) SO 0,00 h 0 W/m² 10,6 °C 12,1 °C 4,4 km/h (1 Bft)
03.05.2024 05:00 22,5 °C 11,6 °C 57 % 92 % 1004,7 hPa 0,0 l/m² 2,9 km/h (1 Bft) SO 0,00 h 7 W/m² 10,4 °C 11,6 °C 5,2 km/h (1 Bft)
03.05.2024 06:00 22,6 °C 11,5 °C 57 % 93 % 1005,6 hPa 0,0 l/m² 3,5 km/h (1 Bft) SO 0,08 h 25 W/m² 10,4 °C 11,4 °C 6,2 km/h (2 Bft)
03.05.2024 07:00 22,6 °C 13,7 °C 56 % 90 % 1006,3 hPa 0,0 l/m² 10,0 km/h (2 Bft) S 1,00 h 154 W/m² 12,1 °C 11,9 °C 14,5 km/h (3 Bft)
03.05.2024 08:00 22,7 °C 16,3 °C 56 % 82 % 1007,0 hPa 0,0 l/m² 12,2 km/h (2 Bft) S 1,00 h 329 W/m² 13,1 °C 13,7 °C 16,7 km/h (3 Bft)
03.05.2024 09:00 22,7 °C 16,9 °C 56 % 79 % 1007,7 hPa 0,0 l/m² 10,7 km/h (2 Bft) S 1,00 h 225 W/m² 13,2 °C 15,0 °C 15,0 km/h (3 Bft)
03.05.2024 10:00 22,5 °C 16,6 °C 56 % 80 % 1008,5 hPa 0,0 l/m² 9,3 km/h (2 Bft) S-SW 1,00 h 149 W/m² 13,1 °C 15,2 °C 12,7 km/h (3 Bft)
03.05.2024 11:00 22,4 °C 16,8 °C 56 % 79 % 1009,2 hPa 0,0 l/m² 7,8 km/h (2 Bft) S-SW 1,00 h 147 W/m² 13,2 °C 16,1 °C 11,2 km/h (2 Bft)
03.05.2024 12:00 22,4 °C 16,8 °C 56 % 78 % 1009,8 hPa 0,0 l/m² 12,8 km/h (3 Bft) SW 1,00 h 220 W/m² 12,9 °C 14,1 °C 17,8 km/h (3 Bft)
03.05.2024 13:00 22,4 °C 17,0 °C 55 % 76 % 1010,4 hPa 0,0 l/m² 13,7 km/h (3 Bft) SW 1,00 h 307 W/m² 12,8 °C 14,1 °C 18,2 km/h (3 Bft)
03.05.2024 14:00 22,4 °C 17,3 °C 55 % 75 % 1010,7 hPa 0,0 l/m² 14,5 km/h (3 Bft) S-SW 1,00 h 318 W/m² 12,8 °C 14,2 °C 19,2 km/h (3 Bft)
03.05.2024 15:00 22,5 °C 17,3 °C 56 % 75 % 1010,9 hPa 0,0 l/m² 15,1 km/h (3 Bft) SW 1,00 h 299 W/m² 12,7 °C 14,0 °C 20,6 km/h (4 Bft)
03.05.2024 16:00 22,5 °C 16,9 °C 56 % 74 % 1011,5 hPa 0,0 l/m² 17,1 km/h (3 Bft) SW 1,00 h 259 W/m² 12,3 °C 13,0 °C 22,7 km/h (4 Bft)
03.05.2024 17:00 22,4 °C 16,4 °C 56 % 75 % 1012,0 hPa 0,0 l/m² 14,2 km/h (3 Bft) SW 1,00 h 149 W/m² 12,0 °C 13,1 °C 19,5 km/h (3 Bft)
03.05.2024 18:00 22,4 °C 15,7 °C 55 % 77 % 1012,5 hPa 0,0 l/m² 10,6 km/h (2 Bft) S-SW 0,82 h 59 W/m² 11,7 °C 13,8 °C 14,9 km/h (3 Bft)
03.05.2024 19:00 22,3 °C 15,3 °C 55 % 78 % 1012,9 hPa 0,0 l/m² 10,0 km/h (2 Bft) SW 0,00 h 15 W/m² 11,4 °C 13,5 °C 14,3 km/h (3 Bft)
03.05.2024 20:00 22,3 °C 14,9 °C 55 % 79 % 1013,3 hPa 0,0 l/m² 9,6 km/h (2 Bft) SW 0,00 h 5 W/m² 11,2 °C 13,3 °C 13,6 km/h (3 Bft)
03.05.2024 21:00 22,6 °C 14,5 °C 56 % 80 % 1014,1 hPa 0,0 l/m² 8,4 km/h (2 Bft) W-SW 0,00 h 0 W/m² 11,0 °C 13,4 °C 12,2 km/h (2 Bft)
03.05.2024 22:00 22,5 °C 13,7 °C 56 % 84 % 1014,7 hPa 0,0 l/m² 7,3 km/h (2 Bft) W 0,00 h 0 W/m² 11,0 °C 13,0 °C 11,0 km/h (2 Bft)
03.05.2024 23:00 22,3 °C 13,0 °C 56 % 87 % 1015,2 hPa 0,0 l/m² 3,1 km/h (1 Bft) SW 0,00 h 0 W/m² 10,9 °C 13,0 °C 5,2 km/h (1 Bft)
04.05.2024 00:00 22,3 °C 12,5 °C 56 % 89 % 1015,9 hPa 0,0 l/m² 0,1 km/h (0 Bft) SW 0,00 h 0 W/m² 10,8 °C 12,5 °C 0,3 km/h (0 Bft)
04.05.2024 01:00 22,2 °C 12,4 °C 56 % 89 % 1015,9 hPa 0,0 l/m² 1,2 km/h (1 Bft) SW 0,00 h 0 W/m² 10,7 °C 12,4 °C 2,1 km/h (1 Bft)
04.05.2024 02:00 22,2 °C 12,0 °C 56 % 89 % 1016,0 hPa 0,0 l/m² 0,6 km/h (0 Bft) SW 0,00 h 0 W/m² 10,2 °C 12,0 °C 1,2 km/h (1 Bft)
04.05.2024 03:00 22,2 °C 11,6 °C 56 % 87 % 1016,0 hPa 0,0 l/m² 0,7 km/h (0 Bft) W-SW 0,00 h 0 W/m² 9,5 °C 11,6 °C 1,8 km/h (1 Bft)
04.05.2024 04:00 22,1 °C 11,3 °C 55 % 87 % 1016,1 hPa 0,0 l/m² 1,3 km/h (1 Bft) W-SW 0,00 h 0 W/m² 9,3 °C 11,3 °C 2,2 km/h (1 Bft)
04.05.2024 05:00 22,1 °C 10,5 °C 55 % 88 % 1016,0 hPa 0,0 l/m² 0,4 km/h (0 Bft) W-SW 0,00 h 10 W/m² 8,6 °C 10,5 °C 0,9 km/h (0 Bft)
04.05.2024 06:00 22,0 °C 9,8 °C 55 % 90 % 1016,5 hPa 0,0 l/m² 0,9 km/h (0 Bft) W-SW 0,00 h 35 W/m² 8,3 °C 9,8 °C 1,7 km/h (1 Bft)
04.05.2024 07:00 22,0 °C 9,8 °C 55 % 91 % 1016,8 hPa 0,0 l/m² 1,0 km/h (0 Bft) W-SW 0,70 h 63 W/m² 8,4 °C 9,8 °C 1,7 km/h (1 Bft)
04.05.2024 08:00 22,0 °C 11,8 °C 57 % 88 % 1017,1 hPa 0,0 l/m² 0,4 km/h (0 Bft) W-SW 1,00 h 175 W/m² 9,9 °C 11,8 °C 1,0 km/h (0 Bft)
04.05.2024 09:00 22,1 °C 13,9 °C 57 % 76 % 1017,1 hPa 0,0 l/m² 3,1 km/h (1 Bft) W 1,00 h 294 W/m² 9,7 °C 13,9 °C 5,4 km/h (2 Bft)
04.05.2024 10:00 22,1 °C 14,7 °C 56 % 73 % 1017,2 hPa 0,0 l/m² 3,6 km/h (1 Bft) W-SW 1,00 h 340 W/m² 9,8 °C 14,7 °C 5,6 km/h (2 Bft)
04.05.2024 11:00 22,0 °C 15,5 °C 53 % 70 % 1017,1 hPa 0,0 l/m² 4,1 km/h (1 Bft) SW 1,00 h 453 W/m² 10,2 °C 15,5 °C 6,3 km/h (2 Bft)
04.05.2024 12:00 21,7 °C 16,4 °C 50 % 66 % 1016,7 hPa 0,0 l/m² 2,5 km/h (1 Bft) SW 1,00 h 535 W/m² 10,2 °C 16,4 °C 4,6 km/h (1 Bft)
04.05.2024 13:00 22,1 °C 17,1 °C 54 % 67 % 1016,3 hPa 0,0 l/m² 3,2 km/h (1 Bft) SW 1,00 h 556 W/m² 11,0 °C 17,1 °C 5,4 km/h (2 Bft)
04.05.2024 14:00 22,2 °C 17,2 °C 54 % 67 % 1015,9 hPa 0,0 l/m² 3,8 km/h (1 Bft) O-SO 1,00 h 433 W/m² 11,0 °C 17,1 °C 6,4 km/h (2 Bft)
04.05.2024 15:00 22,4 °C 18,6 °C 55 % 63 % 1015,2 hPa 0,0 l/m² 3,9 km/h (1 Bft) O 1,00 h 643 W/m² 11,4 °C 18,5 °C 6,7 km/h (2 Bft)
04.05.2024 16:00 22,3 °C 18,1 °C 54 % 67 % 1014,7 hPa 0,0 l/m² 6,8 km/h (2 Bft) S-SO 1,00 h 431 W/m² 11,9 °C 17,5 °C 10,0 km/h (2 Bft)
04.05.2024 17:00 22,3 °C 18,0 °C 54 % 68 % 1014,0 hPa 0,0 l/m² 5,6 km/h (2 Bft) S 1,00 h 287 W/m² 12,0 °C 17,7 °C 7,9 km/h (2 Bft)
04.05.2024 18:00 22,2 °C 16,7 °C 54 % 74 % 1013,4 hPa 0,0 l/m² 4,3 km/h (1 Bft) S 0,92 h 100 W/m² 12,0 °C 16,6 °C 6,2 km/h (2 Bft)
04.05.2024 19:00 22,1 °C 16,0 °C 55 % 76 % 1013,1 hPa 0,0 l/m² 3,3 km/h (1 Bft) S 0,10 h 36 W/m² 11,8 °C 15,9 °C 5,2 km/h (1 Bft)
04.05.2024 20:00 22,1 °C 15,6 °C 55 % 77 % 1013,0 hPa 0,0 l/m² 0,5 km/h (0 Bft) S 0,00 h 10 W/m² 11,6 °C 15,6 °C 1,3 km/h (1 Bft)
04.05.2024 21:00 22,3 °C 14,9 °C 55 % 81 % 1012,9 hPa 0,0 l/m² 0,9 km/h (0 Bft) O 0,00 h 0 W/m² 11,6 °C 14,9 °C 1,4 km/h (1 Bft)
04.05.2024 22:00 22,4 °C 13,5 °C 55 % 86 % 1012,5 hPa 0,0 l/m² 0,0 km/h (0 Bft) O 0,00 h 0 W/m² 11,1 °C 13,5 °C 0,0 km/h (0 Bft)
04.05.2024 23:00 22,2 °C 11,5 °C 55 % 89 % 1012,1 hPa 0,0 l/m² 0,1 km/h (0 Bft) O 0,00 h 0 W/m² 9,8 °C 11,5 °C 0,2 km/h (0 Bft)
05.05.2024 00:00 22,1 °C 10,1 °C 55 % 91 % 1011,4 hPa 0,0 l/m² 0,5 km/h (0 Bft) O 0,00 h 0 W/m² 8,7 °C 10,1 °C 0,9 km/h (0 Bft)
05.05.2024 01:00 22,0 °C 9,5 °C 55 % 91 % 1010,6 hPa 0,0 l/m² 0,0 km/h (0 Bft) O 0,00 h 0 W/m² 8,1 °C 9,5 °C 0,0 km/h (0 Bft)
05.05.2024 02:00 21,9 °C 8,7 °C 55 % 93 % 1010,0 hPa 0,0 l/m² 0,3 km/h (0 Bft) O 0,00 h 0 W/m² 7,6 °C 8,7 °C 0,8 km/h (0 Bft)
05.05.2024 03:00 21,8 °C 8,4 °C 55 % 93 % 1009,6 hPa 0,0 l/m² 0,0 km/h (0 Bft) O 0,00 h 0 W/m² 7,4 °C 8,4 °C 0,0 km/h (0 Bft)
05.05.2024 04:00 21,7 °C 9,8 °C 55 % 94 % 1009,3 hPa 0,4 l/m² 2,0 km/h (1 Bft) W 0,00 h 0 W/m² 8,9 °C 9,8 °C 3,5 km/h (1 Bft)
05.05.2024 05:00 21,7 °C 11,1 °C 54 % 94 % 1008,7 hPa 0,2 l/m² 2,2 km/h (1 Bft) NO 0,00 h 8 W/m² 10,2 °C 11,1 °C 4,1 km/h (1 Bft)
05.05.2024 06:00 21,6 °C 11,4 °C 54 % 94 % 1008,8 hPa 0,0 l/m² 0,5 km/h (0 Bft) NO 0,20 h 34 W/m² 10,5 °C 11,4 °C 1,2 km/h (1 Bft)
05.05.2024 07:00 21,6 °C 12,3 °C 54 % 94 % 1009,0 hPa 0,6 l/m² 2,1 km/h (1 Bft) NO 0,75 h 57 W/m² 11,4 °C 12,3 °C 3,5 km/h (1 Bft)
05.05.2024 08:00 21,6 °C 13,3 °C 55 % 92 % 1009,0 hPa 0,2 l/m² 5,4 km/h (2 Bft) S-SO 0,92 h 129 W/m² 12,0 °C 13,1 °C 9,0 km/h (2 Bft)
05.05.2024 09:00 21,8 °C 14,7 °C 56 % 88 % 1009,2 hPa 0,2 l/m² 6,3 km/h (2 Bft) S-SW 1,02 h 147 W/m² 12,7 °C 14,3 °C 10,8 km/h (2 Bft)
05.05.2024 10:00 21,8 °C 14,9 °C 55 % 86 % 1009,4 hPa 0,0 l/m² 13,1 km/h (3 Bft) SW 0,98 h 183 W/m² 12,6 °C 11,9 °C 19,2 km/h (3 Bft)
05.05.2024 11:00 21,9 °C 15,3 °C 55 % 86 % 1009,2 hPa 0,0 l/m² 8,2 km/h (2 Bft) SW 1,00 h 211 W/m² 12,9 °C 14,3 °C 12,6 km/h (2 Bft)
05.05.2024 12:00 21,9 °C 16,7 °C 55 % 78 % 1009,0 hPa 0,0 l/m² 13,3 km/h (3 Bft) SW 1,02 h 334 W/m² 12,8 °C 13,8 °C 19,6 km/h (3 Bft)
05.05.2024 13:00 22,2 °C 18,0 °C 55 % 72 % 1008,6 hPa 0,0 l/m² 17,1 km/h (3 Bft) SW 1,00 h 523 W/m² 12,8 °C 14,3 °C 24,0 km/h (4 Bft)
05.05.2024 14:00 22,2 °C 19,6 °C 55 % 63 % 1008,3 hPa 0,0 l/m² 20,5 km/h (4 Bft) SW 1,00 h 857 W/m² 12,4 °C 15,5 °C 30,0 km/h (5 Bft)
05.05.2024 15:00 22,3 °C 20,3 °C 52 % 57 % 1007,9 hPa 0,0 l/m² 17,8 km/h (3 Bft) SW 1,00 h 759 W/m² 11,4 °C 17,0 °C 25,1 km/h (4 Bft)
05.05.2024 16:00 22,2 °C 20,2 °C 47 % 53 % 1007,7 hPa 0,0 l/m² 17,5 km/h (3 Bft) SW 1,00 h 591 W/m² 10,5 °C 17,0 °C 24,5 km/h (4 Bft)
05.05.2024 17:00 22,1 °C 19,8 °C 49 % 54 % 1007,5 hPa 0,0 l/m² 13,4 km/h (3 Bft) W-SW 0,98 h 431 W/m² 10,1 °C 17,5 °C 19,5 km/h (3 Bft)
05.05.2024 18:00 22,1 °C 18,9 °C 51 % 54 % 1007,9 hPa 0,0 l/m² 11,0 km/h (2 Bft) W-SW 0,68 h 202 W/m² 9,5 °C 17,2 °C 16,5 km/h (3 Bft)
05.05.2024 19:00 22,1 °C 16,7 °C 52 % 63 % 1008,3 hPa 0,0 l/m² 5,3 km/h (1 Bft) W 0,50 h 61 W/m² 9,7 °C 16,6 °C 8,8 km/h (2 Bft)
05.05.2024 20:00 22,2 °C 14,7 °C 55 % 69 % 1008,6 hPa 0,0 l/m² 3,9 km/h (1 Bft) NW 0,00 h 15 W/m² 9,0 °C 14,7 °C 7,4 km/h (2 Bft)
05.05.2024 21:00 22,4 °C 12,0 °C 55 % 78 % 1009,2 hPa 0,0 l/m² 1,4 km/h (1 Bft) W-NW 0,00 h 0 W/m² 8,1 °C 12,0 °C 2,5 km/h (1 Bft)
05.05.2024 22:00 22,3 °C 9,7 °C 55 % 86 % 1009,3 hPa 0,0 l/m² 0,2 km/h (0 Bft) W-NW 0,00 h 0 W/m² 7,4 °C 9,7 °C 0,5 km/h (0 Bft)
05.05.2024 23:00 22,0 °C 8,3 °C 55 % 89 % 1009,4 hPa 0,0 l/m² 0,0 km/h (0 Bft) W-NW 0,00 h 0 W/m² 6,7 °C 8,3 °C 0,0 km/h (0 Bft)
Min-Datum _ 05.05.24 05.05.24 05.05.24 01.05.24 02.05.24 - 05.05.24 - - - 05.05.24 05.05.24 05.05.24
_ Min-Zeit 08:00 23:48 16:04 14:35 17:47 - 23:00 - - - 23:48 04:09 23:00
Minimum _ 21,6 °C 7,9 °C 46 % 47 % 999,9 hPa - 0,0 km/h (0 Bft) - - - 6,2 °C 7,8 °C 0,0 km/h (0 Bft)
Max-Datum _ 02.05.24 30.04.24 03.05.24 05.05.24 29.04.24 05.05.24 02.05.24 - 05.05.24 04.05.24 30.04.24 30.04.24 05.05.24
_ Max-Zeit 23:00 16:27 05:21 06:04 11:28 07:40 18:13 - 18:13 12:46 14:56 16:25 14:01
Maximum _ 22,9 °C 27,4 °C 58 % 95 % 1022,9 hPa 0,6 l/m² 32,7 km/h
O (5 Bft)
- 0,05 h 1097 W/m² 17,8 °C 27,3 °C 41,8 km/h
SW (6 Bft)
Durchschnitt _ 22,3 °C 16,1 °C 54 % 75 % 1011,6 hPa #1,8 l/m² 6,9 km/h (2 Bft) O #86:56 h 221 W/m² 11,4 °C 15,3 °C 10,2 km/h (2 Bft)
© 2009 Mathias Hoßbach